sensor_id;sensor_type;location;lat;lon;timestamp;P1;durP1;ratioP1;P2;durP2;ratioP2
3875;SDS011;1953;51.222;6.624;2023-02-20T00:01:44;22.03;;;11.40;;
3875;SDS011;1953;51.222;6.624;2023-02-20T00:09:52;21.00;;;11.10;;
3875;SDS011;1953;51.222;6.624;2023-02-20T00:14:34;22.10;;;11.30;;
3875;SDS011;1953;51.222;6.624;2023-02-20T00:19:17;19.20;;;11.13;;
3875;SDS011;1953;51.222;6.624;2023-02-20T00:23:59;25.63;;;11.90;;
3875;SDS011;1953;51.222;6.624;2023-02-20T00:28:43;26.63;;;12.40;;
3875;SDS011;1953;51.222;6.624;2023-02-20T00:33:26;22.80;;;11.63;;
3875;SDS011;1953;51.222;6.624;2023-02-20T00:38:11;22.97;;;12.53;;
3875;SDS011;1953;51.222;6.624;2023-02-20T00:42:53;24.33;;;12.40;;
3875;SDS011;1953;51.222;6.624;2023-02-20T00:47:37;23.77;;;13.00;;
3875;SDS011;1953;51.222;6.624;2023-02-20T00:52:20;24.53;;;12.57;;
3875;SDS011;1953;51.222;6.624;2023-02-20T00:57:02;23.63;;;11.90;;
3875;SDS011;1953;51.222;6.624;2023-02-20T01:01:45;24.00;;;13.00;;
3875;SDS011;1953;51.222;6.624;2023-02-20T01:06:29;28.60;;;12.80;;
3875;SDS011;1953;51.222;6.624;2023-02-20T01:11:11;24.30;;;12.17;;
3875;SDS011;1953;51.222;6.624;2023-02-20T01:15:54;24.33;;;12.50;;
3875;SDS011;1953;51.222;6.624;2023-02-20T01:20:36;23.83;;;13.50;;
3875;SDS011;1953;51.222;6.624;2023-02-20T01:25:20;21.17;;;12.90;;
3875;SDS011;1953;51.222;6.624;2023-02-20T01:30:03;24.77;;;13.83;;
3875;SDS011;1953;51.222;6.624;2023-02-20T01:34:46;26.00;;;14.00;;
3875;SDS011;1953;51.222;6.624;2023-02-20T01:39:28;27.17;;;14.60;;
3875;SDS011;1953;51.222;6.624;2023-02-20T01:44:17;25.73;;;14.80;;
3875;SDS011;1953;51.222;6.624;2023-02-20T01:49:01;29.10;;;14.50;;
3875;SDS011;1953;51.222;6.624;2023-02-20T01:53:46;24.83;;;14.37;;
3875;SDS011;1953;51.222;6.624;2023-02-20T01:58:29;32.83;;;14.87;;
3875;SDS011;1953;51.222;6.624;2023-02-20T02:03:19;27.00;;;15.63;;
3875;SDS011;1953;51.222;6.624;2023-02-20T02:08:05;27.70;;;15.20;;
3875;SDS011;1953;51.222;6.624;2023-02-20T02:12:51;33.73;;;15.83;;
3875;SDS011;1953;51.222;6.624;2023-02-20T02:17:43;30.53;;;14.83;;
3875;SDS011;1953;51.222;6.624;2023-02-20T02:22:59;32.60;;;15.33;;
3875;SDS011;1953;51.222;6.624;2023-02-20T02:28:23;31.67;;;16.37;;
3875;SDS011;1953;51.222;6.624;2023-02-20T02:33:45;35.10;;;16.20;;
3875;SDS011;1953;51.222;6.624;2023-02-20T02:39:01;30.70;;;14.90;;
3875;SDS011;1953;51.222;6.624;2023-02-20T02:43:48;27.53;;;14.00;;
3875;SDS011;1953;51.222;6.624;2023-02-20T02:48:38;31.53;;;15.13;;
3875;SDS011;1953;51.222;6.624;2023-02-20T02:53:26;28.13;;;13.70;;
3875;SDS011;1953;51.222;6.624;2023-02-20T02:58:10;29.67;;;15.13;;
3875;SDS011;1953;51.222;6.624;2023-02-20T03:02:55;30.30;;;13.50;;
3875;SDS011;1953;51.222;6.624;2023-02-20T03:07:44;33.27;;;14.97;;
3875;SDS011;1953;51.222;6.624;2023-02-20T03:12:29;30.83;;;14.00;;
3875;SDS011;1953;51.222;6.624;2023-02-20T03:17:16;26.37;;;13.27;;
3875;SDS011;1953;51.222;6.624;2023-02-20T03:22:08;24.40;;;12.20;;
3875;SDS011;1953;51.222;6.624;2023-02-20T03:26:55;21.97;;;11.37;;
3875;SDS011;1953;51.222;6.624;2023-02-20T03:31:40;24.97;;;11.07;;
3875;SDS011;1953;51.222;6.624;2023-02-20T03:36:30;25.47;;;11.90;;
3875;SDS011;1953;51.222;6.624;2023-02-20T03:41:34;22.67;;;11.47;;
3875;SDS011;1953;51.222;6.624;2023-02-20T03:46:37;25.63;;;10.30;;
3875;SDS011;1953;51.222;6.624;2023-02-20T03:51:21;25.30;;;9.77;;
3875;SDS011;1953;51.222;6.624;2023-02-20T03:56:06;18.83;;;9.30;;
3875;SDS011;1953;51.222;6.624;2023-02-20T04:00:52;18.50;;;8.77;;
3875;SDS011;1953;51.222;6.624;2023-02-20T04:05:39;16.90;;;8.80;;
3875;SDS011;1953;51.222;6.624;2023-02-20T04:10:27;16.50;;;8.50;;
3875;SDS011;1953;51.222;6.624;2023-02-20T04:15:14;23.53;;;8.17;;
3875;SDS011;1953;51.222;6.624;2023-02-20T04:19:57;17.70;;;7.90;;
3875;SDS011;1953;51.222;6.624;2023-02-20T04:24:40;17.60;;;7.40;;
3875;SDS011;1953;51.222;6.624;2023-02-20T04:29:27;14.70;;;8.10;;
3875;SDS011;1953;51.222;6.624;2023-02-20T04:34:11;14.43;;;7.10;;
3875;SDS011;1953;51.222;6.624;2023-02-20T04:38:54;19.30;;;7.90;;
3875;SDS011;1953;51.222;6.624;2023-02-20T04:43:36;14.73;;;7.60;;
3875;SDS011;1953;51.222;6.624;2023-02-20T04:48:19;10.93;;;6.07;;
3875;SDS011;1953;51.222;6.624;2023-02-20T04:53:03;13.77;;;6.80;;
3875;SDS011;1953;51.222;6.624;2023-02-20T04:57:45;17.37;;;7.03;;
3875;SDS011;1953;51.222;6.624;2023-02-20T05:02:28;16.13;;;6.80;;
3875;SDS011;1953;51.222;6.624;2023-02-20T05:07:10;17.60;;;7.00;;
3875;SDS011;1953;51.222;6.624;2023-02-20T05:11:54;13.60;;;6.27;;
3875;SDS011;1953;51.222;6.624;2023-02-20T05:16:37;18.43;;;7.07;;
3875;SDS011;1953;51.222;6.624;2023-02-20T05:21:20;17.73;;;6.37;;
3875;SDS011;1953;51.222;6.624;2023-02-20T05:26:20;25.73;;;6.40;;
3875;SDS011;1953;51.222;6.624;2023-02-20T05:31:05;15.70;;;6.73;;
3875;SDS011;1953;51.222;6.624;2023-02-20T05:35:47;16.20;;;7.60;;
3875;SDS011;1953;51.222;6.624;2023-02-20T05:40:30;16.33;;;7.73;;
3875;SDS011;1953;51.222;6.624;2023-02-20T05:45:12;15.83;;;7.97;;
3875;SDS011;1953;51.222;6.624;2023-02-20T05:49:57;17.80;;;9.73;;
3875;SDS011;1953;51.222;6.624;2023-02-20T05:54:39;23.93;;;11.70;;
3875;SDS011;1953;51.222;6.624;2023-02-20T05:59:22;20.33;;;9.63;;
3875;SDS011;1953;51.222;6.624;2023-02-20T06:04:05;24.17;;;12.23;;
3875;SDS011;1953;51.222;6.624;2023-02-20T06:08:49;24.57;;;11.40;;
3875;SDS011;1953;51.222;6.624;2023-02-20T06:13:31;22.73;;;11.50;;
3875;SDS011;1953;51.222;6.624;2023-02-20T06:18:14;23.10;;;11.10;;
3875;SDS011;1953;51.222;6.624;2023-02-20T06:22:56;24.10;;;11.90;;
3875;SDS011;1953;51.222;6.624;2023-02-20T06:27:40;26.27;;;12.63;;
3875;SDS011;1953;51.222;6.624;2023-02-20T06:32:23;27.63;;;12.53;;
3875;SDS011;1953;51.222;6.624;2023-02-20T06:37:05;25.77;;;13.23;;
3875;SDS011;1953;51.222;6.624;2023-02-20T06:41:48;21.03;;;8.63;;
3875;SDS011;1953;51.222;6.624;2023-02-20T06:46:32;22.90;;;11.57;;
3875;SDS011;1953;51.222;6.624;2023-02-20T06:51:14;23.17;;;12.03;;
3875;SDS011;1953;51.222;6.624;2023-02-20T06:55:57;30.00;;;14.67;;
3875;SDS011;1953;51.222;6.624;2023-02-20T07:00:40;28.97;;;13.73;;
3875;SDS011;1953;51.222;6.624;2023-02-20T07:05:24;19.00;;;9.10;;
3875;SDS011;1953;51.222;6.624;2023-02-20T07:10:06;21.80;;;13.70;;
3875;SDS011;1953;51.222;6.624;2023-02-20T07:14:49;23.63;;;12.50;;
3875;SDS011;1953;51.222;6.624;2023-02-20T07:19:32;21.70;;;13.00;;
3875;SDS011;1953;51.222;6.624;2023-02-20T07:24:16;25.90;;;13.90;;
3875;SDS011;1953;51.222;6.624;2023-02-20T07:28:58;24.97;;;12.53;;
3875;SDS011;1953;51.222;6.624;2023-02-20T07:33:41;24.93;;;13.80;;
3875;SDS011;1953;51.222;6.624;2023-02-20T07:38:24;23.07;;;13.00;;
3875;SDS011;1953;51.222;6.624;2023-02-20T07:43:08;23.87;;;13.37;;
3875;SDS011;1953;51.222;6.624;2023-02-20T07:47:50;35.70;;;14.63;;
3875;SDS011;1953;51.222;6.624;2023-02-20T07:52:33;24.10;;;13.63;;
3875;SDS011;1953;51.222;6.624;2023-02-20T07:57:15;33.07;;;14.63;;
3875;SDS011;1953;51.222;6.624;2023-02-20T08:01:59;26.77;;;15.70;;
3875;SDS011;1953;51.222;6.624;2023-02-20T08:06:42;29.03;;;15.20;;
3875;SDS011;1953;51.222;6.624;2023-02-20T08:11:24;29.97;;;13.90;;
3875;SDS011;1953;51.222;6.624;2023-02-20T08:16:07;22.73;;;12.93;;
3875;SDS011;1953;51.222;6.624;2023-02-20T08:20:50;28.13;;;13.33;;
3875;SDS011;1953;51.222;6.624;2023-02-20T08:25:33;28.83;;;13.87;;
3875;SDS011;1953;51.222;6.624;2023-02-20T08:30:16;28.10;;;13.33;;
3875;SDS011;1953;51.222;6.624;2023-02-20T08:35:03;19.77;;;10.70;;
3875;SDS011;1953;51.222;6.624;2023-02-20T08:39:47;24.60;;;12.30;;
3875;SDS011;1953;51.222;6.624;2023-02-20T08:44:30;18.43;;;10.43;;
3875;SDS011;1953;51.222;6.624;2023-02-20T08:49:12;25.40;;;12.93;;
3875;SDS011;1953;51.222;6.624;2023-02-20T08:53:56;26.53;;;13.00;;
3875;SDS011;1953;51.222;6.624;2023-02-20T08:58:40;24.13;;;14.03;;
3875;SDS011;1953;51.222;6.624;2023-02-20T09:03:22;22.43;;;11.60;;
3875;SDS011;1953;51.222;6.624;2023-02-20T09:08:06;28.30;;;13.03;;
3875;SDS011;1953;51.222;6.624;2023-02-20T09:12:49;25.77;;;12.50;;
3875;SDS011;1953;51.222;6.624;2023-02-20T09:17:33;32.53;;;12.67;;
3875;SDS011;1953;51.222;6.624;2023-02-20T09:22:20;28.83;;;14.60;;
3875;SDS011;1953;51.222;6.624;2023-02-20T09:27:03;24.03;;;13.60;;
3875;SDS011;1953;51.222;6.624;2023-02-20T09:31:46;25.17;;;11.07;;
3875;SDS011;1953;51.222;6.624;2023-02-20T09:36:30;27.20;;;11.10;;
3875;SDS011;1953;51.222;6.624;2023-02-20T09:41:17;23.53;;;10.90;;
3875;SDS011;1953;51.222;6.624;2023-02-20T09:46:08;25.67;;;12.10;;
3875;SDS011;1953;51.222;6.624;2023-02-20T09:50:54;18.13;;;9.70;;
3875;SDS011;1953;51.222;6.624;2023-02-20T09:55:41;19.67;;;10.10;;
3875;SDS011;1953;51.222;6.624;2023-02-20T10:00:26;25.70;;;12.20;;
3875;SDS011;1953;51.222;6.624;2023-02-20T10:05:13;23.43;;;11.63;;
3875;SDS011;1953;51.222;6.624;2023-02-20T10:10:03;29.90;;;13.50;;
3875;SDS011;1953;51.222;6.624;2023-02-20T10:15:04;28.03;;;13.00;;
3875;SDS011;1953;51.222;6.624;2023-02-20T10:19:55;22.23;;;11.70;;
3875;SDS011;1953;51.222;6.624;2023-02-20T10:24:47;21.70;;;12.03;;
3875;SDS011;1953;51.222;6.624;2023-02-20T10:29:36;23.03;;;13.90;;
3875;SDS011;1953;51.222;6.624;2023-02-20T10:34:23;27.07;;;13.43;;
3875;SDS011;1953;51.222;6.624;2023-02-20T10:39:13;26.37;;;12.87;;
3875;SDS011;1953;51.222;6.624;2023-02-20T10:43:58;22.57;;;11.23;;
3875;SDS011;1953;51.222;6.624;2023-02-20T10:48:46;35.80;;;13.63;;
3875;SDS011;1953;51.222;6.624;2023-02-20T10:53:33;27.97;;;13.17;;
3875;SDS011;1953;51.222;6.624;2023-02-20T10:58:21;22.07;;;12.00;;
3875;SDS011;1953;51.222;6.624;2023-02-20T11:03:08;29.77;;;13.67;;
3875;SDS011;1953;51.222;6.624;2023-02-20T11:07:55;27.30;;;13.90;;
3875;SDS011;1953;51.222;6.624;2023-02-20T11:12:40;20.90;;;12.00;;
3875;SDS011;1953;51.222;6.624;2023-02-20T11:17:27;25.27;;;13.87;;
3875;SDS011;1953;51.222;6.624;2023-02-20T11:22:10;23.23;;;12.70;;
3875;SDS011;1953;51.222;6.624;2023-02-20T11:26:54;26.47;;;13.60;;
3875;SDS011;1953;51.222;6.624;2023-02-20T11:31:40;23.00;;;9.23;;
3875;SDS011;1953;51.222;6.624;2023-02-20T11:36:24;19.67;;;9.63;;
3875;SDS011;1953;51.222;6.624;2023-02-20T11:41:19;23.30;;;13.57;;
3875;SDS011;1953;51.222;6.624;2023-02-20T11:46:08;25.00;;;12.27;;
3875;SDS011;1953;51.222;6.624;2023-02-20T11:50:54;21.77;;;9.47;;
3875;SDS011;1953;51.222;6.624;2023-02-20T11:55:36;32.97;;;13.90;;
3875;SDS011;1953;51.222;6.624;2023-02-20T12:00:22;22.80;;;12.67;;
3875;SDS011;1953;51.222;6.624;2023-02-20T12:05:07;28.00;;;13.87;;
3875;SDS011;1953;51.222;6.624;2023-02-20T12:10:52;28.23;;;14.00;;
3875;SDS011;1953;51.222;6.624;2023-02-20T12:15:39;27.50;;;14.83;;
3875;SDS011;1953;51.222;6.624;2023-02-20T12:20:23;31.60;;;15.37;;
3875;SDS011;1953;51.222;6.624;2023-02-20T12:25:14;30.20;;;14.33;;
3875;SDS011;1953;51.222;6.624;2023-02-20T12:30:10;25.20;;;14.67;;
3875;SDS011;1953;51.222;6.624;2023-02-20T12:35:17;33.03;;;13.37;;
3875;SDS011;1953;51.222;6.624;2023-02-20T12:45:17;27.70;;;13.80;;
3875;SDS011;1953;51.222;6.624;2023-02-20T12:50:14;24.60;;;13.10;;
3875;SDS011;1953;51.222;6.624;2023-02-20T12:55:07;26.00;;;12.67;;
3875;SDS011;1953;51.222;6.624;2023-02-20T13:00:00;25.90;;;13.40;;
3875;SDS011;1953;51.222;6.624;2023-02-20T13:04:47;29.90;;;13.80;;
3875;SDS011;1953;51.222;6.624;2023-02-20T13:09:34;21.63;;;11.00;;
3875;SDS011;1953;51.222;6.624;2023-02-20T13:14:23;24.10;;;11.27;;
3875;SDS011;1953;51.222;6.624;2023-02-20T13:19:14;25.43;;;14.07;;
3875;SDS011;1953;51.222;6.624;2023-02-20T13:24:26;24.13;;;13.67;;
3875;SDS011;1953;51.222;6.624;2023-02-20T13:29:11;22.97;;;12.70;;
3875;SDS011;1953;51.222;6.624;2023-02-20T13:39:31;30.93;;;13.57;;
3875;SDS011;1953;51.222;6.624;2023-02-20T13:54:38;25.77;;;13.30;;
3875;SDS011;1953;51.222;6.624;2023-02-20T13:59:21;29.93;;;13.20;;
3875;SDS011;1953;51.222;6.624;2023-02-20T14:04:04;27.30;;;14.80;;
3875;SDS011;1953;51.222;6.624;2023-02-20T14:08:48;30.50;;;13.30;;
3875;SDS011;1953;51.222;6.624;2023-02-20T14:13:32;27.87;;;14.80;;
3875;SDS011;1953;51.222;6.624;2023-02-20T14:18:16;25.90;;;11.47;;
3875;SDS011;1953;51.222;6.624;2023-02-20T14:23:04;31.90;;;15.80;;
3875;SDS011;1953;51.222;6.624;2023-02-20T14:27:48;33.83;;;14.83;;
3875;SDS011;1953;51.222;6.624;2023-02-20T14:32:32;32.50;;;14.33;;
3875;SDS011;1953;51.222;6.624;2023-02-20T14:37:17;31.70;;;15.17;;
3875;SDS011;1953;51.222;6.624;2023-02-20T14:42:05;27.33;;;13.73;;
3875;SDS011;1953;51.222;6.624;2023-02-20T14:46:55;31.10;;;15.37;;
3875;SDS011;1953;51.222;6.624;2023-02-20T14:51:46;29.80;;;14.60;;
3875;SDS011;1953;51.222;6.624;2023-02-20T14:56:29;26.50;;;13.90;;
3875;SDS011;1953;51.222;6.624;2023-02-20T15:01:12;37.40;;;15.40;;
3875;SDS011;1953;51.222;6.624;2023-02-20T15:06:00;31.30;;;16.33;;
3875;SDS011;1953;51.222;6.624;2023-02-20T15:10:46;29.03;;;15.43;;
3875;SDS011;1953;51.222;6.624;2023-02-20T15:15:32;30.30;;;16.90;;
3875;SDS011;1953;51.222;6.624;2023-02-20T15:20:17;27.30;;;15.00;;
3875;SDS011;1953;51.222;6.624;2023-02-20T15:25:11;28.83;;;15.63;;
3875;SDS011;1953;51.222;6.624;2023-02-20T15:30:07;27.07;;;14.07;;
3875;SDS011;1953;51.222;6.624;2023-02-20T15:34:53;28.80;;;14.77;;
3875;SDS011;1953;51.222;6.624;2023-02-20T15:39:38;34.10;;;15.13;;
3875;SDS011;1953;51.222;6.624;2023-02-20T15:44:20;35.13;;;15.87;;
3875;SDS011;1953;51.222;6.624;2023-02-20T15:49:04;36.77;;;15.30;;
3875;SDS011;1953;51.222;6.624;2023-02-20T15:53:47;23.77;;;13.50;;
3875;SDS011;1953;51.222;6.624;2023-02-20T15:58:32;30.20;;;14.40;;
3875;SDS011;1953;51.222;6.624;2023-02-20T16:03:16;28.57;;;13.43;;
3875;SDS011;1953;51.222;6.624;2023-02-20T16:08:00;26.77;;;13.23;;
3875;SDS011;1953;51.222;6.624;2023-02-20T16:12:43;24.80;;;13.73;;
3875;SDS011;1953;51.222;6.624;2023-02-20T16:17:27;31.40;;;14.57;;
3875;SDS011;1953;51.222;6.624;2023-02-20T16:22:12;26.57;;;13.93;;
3875;SDS011;1953;51.222;6.624;2023-02-20T16:26:56;23.73;;;12.53;;
3875;SDS011;1953;51.222;6.624;2023-02-20T16:36:59;26.43;;;14.37;;
3875;SDS011;1953;51.222;6.624;2023-02-20T16:41:42;24.13;;;13.90;;
3875;SDS011;1953;51.222;6.624;2023-02-20T16:46:26;23.83;;;13.57;;
3875;SDS011;1953;51.222;6.624;2023-02-20T16:51:09;24.40;;;12.30;;
3875;SDS011;1953;51.222;6.624;2023-02-20T16:55:53;26.90;;;13.80;;
3875;SDS011;1953;51.222;6.624;2023-02-20T17:00:38;26.20;;;14.27;;
3875;SDS011;1953;51.222;6.624;2023-02-20T17:05:23;25.00;;;13.67;;
3875;SDS011;1953;51.222;6.624;2023-02-20T17:10:07;23.20;;;13.30;;
3875;SDS011;1953;51.222;6.624;2023-02-20T17:14:50;27.53;;;12.47;;
3875;SDS011;1953;51.222;6.624;2023-02-20T17:19:35;24.80;;;14.30;;
3875;SDS011;1953;51.222;6.624;2023-02-20T17:24:19;26.53;;;14.13;;
3875;SDS011;1953;51.222;6.624;2023-02-20T17:29:02;23.20;;;12.37;;
3875;SDS011;1953;51.222;6.624;2023-02-20T17:33:44;25.30;;;13.23;;
3875;SDS011;1953;51.222;6.624;2023-02-20T17:38:26;28.10;;;12.67;;
3875;SDS011;1953;51.222;6.624;2023-02-20T17:43:10;24.60;;;14.53;;
3875;SDS011;1953;51.222;6.624;2023-02-20T17:47:53;25.40;;;12.90;;
3875;SDS011;1953;51.222;6.624;2023-02-20T17:52:36;25.40;;;13.90;;
3875;SDS011;1953;51.222;6.624;2023-02-20T17:57:18;32.93;;;15.20;;
3875;SDS011;1953;51.222;6.624;2023-02-20T18:02:05;23.90;;;12.47;;
3875;SDS011;1953;51.222;6.624;2023-02-20T18:06:48;24.13;;;13.50;;
3875;SDS011;1953;51.222;6.624;2023-02-20T18:11:30;29.73;;;13.60;;
3875;SDS011;1953;51.222;6.624;2023-02-20T18:16:13;21.60;;;13.17;;
3875;SDS011;1953;51.222;6.624;2023-02-20T18:20:57;28.83;;;14.17;;
3875;SDS011;1953;51.222;6.624;2023-02-20T18:25:40;25.30;;;14.00;;
3875;SDS011;1953;51.222;6.624;2023-02-20T18:30:22;27.77;;;13.80;;
3875;SDS011;1953;51.222;6.624;2023-02-20T18:35:05;19.17;;;13.00;;
3875;SDS011;1953;51.222;6.624;2023-02-20T18:39:49;28.30;;;13.00;;
3875;SDS011;1953;51.222;6.624;2023-02-20T18:44:32;20.87;;;12.63;;
3875;SDS011;1953;51.222;6.624;2023-02-20T18:49:14;20.40;;;12.80;;
3875;SDS011;1953;51.222;6.624;2023-02-20T18:53:57;20.33;;;13.20;;
3875;SDS011;1953;51.222;6.624;2023-02-20T18:58:40;25.93;;;14.50;;
3875;SDS011;1953;51.222;6.624;2023-02-20T19:03:23;24.03;;;13.90;;
3875;SDS011;1953;51.222;6.624;2023-02-20T19:08:05;27.63;;;14.53;;
3875;SDS011;1953;51.222;6.624;2023-02-20T19:12:48;33.60;;;15.43;;
3875;SDS011;1953;51.222;6.624;2023-02-20T19:17:32;33.67;;;14.57;;
3875;SDS011;1953;51.222;6.624;2023-02-20T19:22:15;29.07;;;16.50;;
3875;SDS011;1953;51.222;6.624;2023-02-20T19:26:57;28.07;;;15.57;;
3875;SDS011;1953;51.222;6.624;2023-02-20T19:31:39;22.30;;;13.33;;
3875;SDS011;1953;51.222;6.624;2023-02-20T19:36:23;30.60;;;14.67;;
3875;SDS011;1953;51.222;6.624;2023-02-20T19:41:06;31.00;;;17.43;;
3875;SDS011;1953;51.222;6.624;2023-02-20T19:45:48;27.30;;;15.47;;
3875;SDS011;1953;51.222;6.624;2023-02-20T19:50:30;31.07;;;17.07;;
3875;SDS011;1953;51.222;6.624;2023-02-20T19:55:16;26.97;;;16.27;;
3875;SDS011;1953;51.222;6.624;2023-02-20T19:59:59;26.40;;;15.30;;
3875;SDS011;1953;51.222;6.624;2023-02-20T20:04:42;28.40;;;16.70;;
3875;SDS011;1953;51.222;6.624;2023-02-20T20:09:25;30.47;;;17.20;;
3875;SDS011;1953;51.222;6.624;2023-02-20T20:14:09;28.33;;;16.50;;
3875;SDS011;1953;51.222;6.624;2023-02-20T20:18:52;29.43;;;16.17;;
3875;SDS011;1953;51.222;6.624;2023-02-20T20:23:34;33.47;;;17.63;;
3875;SDS011;1953;51.222;6.624;2023-02-20T20:28:17;24.53;;;15.57;;
3875;SDS011;1953;51.222;6.624;2023-02-20T20:33:00;23.37;;;15.10;;
3875;SDS011;1953;51.222;6.624;2023-02-20T20:37:43;29.43;;;17.20;;
3875;SDS011;1953;51.222;6.624;2023-02-20T20:42:25;30.53;;;17.73;;
3875;SDS011;1953;51.222;6.624;2023-02-20T20:47:08;39.93;;;22.37;;
3875;SDS011;1953;51.222;6.624;2023-02-20T20:51:52;36.83;;;20.50;;
3875;SDS011;1953;51.222;6.624;2023-02-20T20:56:35;41.20;;;20.00;;
3875;SDS011;1953;51.222;6.624;2023-02-20T21:01:17;38.77;;;21.53;;
3875;SDS011;1953;51.222;6.624;2023-02-20T21:05:59;42.97;;;25.40;;
3875;SDS011;1953;51.222;6.624;2023-02-20T21:10:43;39.10;;;18.00;;
3875;SDS011;1953;51.222;6.624;2023-02-20T21:15:26;34.23;;;19.47;;
3875;SDS011;1953;51.222;6.624;2023-02-20T21:20:11;45.47;;;22.10;;
3875;SDS011;1953;51.222;6.624;2023-02-20T21:24:54;50.17;;;22.00;;
3875;SDS011;1953;51.222;6.624;2023-02-20T21:29:38;36.67;;;21.47;;
3875;SDS011;1953;51.222;6.624;2023-02-20T21:34:21;45.73;;;23.20;;
3875;SDS011;1953;51.222;6.624;2023-02-20T21:39:04;40.13;;;21.63;;
3875;SDS011;1953;51.222;6.624;2023-02-20T21:43:46;34.47;;;18.83;;
3875;SDS011;1953;51.222;6.624;2023-02-20T21:48:47;34.97;;;17.47;;
3875;SDS011;1953;51.222;6.624;2023-02-20T21:53:30;35.00;;;19.80;;
3875;SDS011;1953;51.222;6.624;2023-02-20T21:58:12;35.20;;;20.23;;
3875;SDS011;1953;51.222;6.624;2023-02-20T22:02:59;35.53;;;19.17;;
3875;SDS011;1953;51.222;6.624;2023-02-20T22:07:42;39.07;;;20.80;;
3875;SDS011;1953;51.222;6.624;2023-02-20T22:12:42;33.43;;;18.10;;
3875;SDS011;1953;51.222;6.624;2023-02-20T22:17:42;38.50;;;19.47;;
3875;SDS011;1953;51.222;6.624;2023-02-20T22:22:43;33.77;;;18.30;;
3875;SDS011;1953;51.222;6.624;2023-02-20T22:27:44;43.80;;;20.27;;
3875;SDS011;1953;51.222;6.624;2023-02-20T22:32:44;38.90;;;20.70;;
3875;SDS011;1953;51.222;6.624;2023-02-20T22:37:46;47.43;;;21.70;;
3875;SDS011;1953;51.222;6.624;2023-02-20T22:42:46;40.23;;;22.20;;
3875;SDS011;1953;51.222;6.624;2023-02-20T22:47:46;34.00;;;18.10;;
3875;SDS011;1953;51.222;6.624;2023-02-20T22:52:48;36.83;;;20.33;;
3875;SDS011;1953;51.222;6.624;2023-02-20T22:57:48;42.03;;;21.80;;
3875;SDS011;1953;51.222;6.624;2023-02-20T23:02:48;46.37;;;24.33;;
3875;SDS011;1953;51.222;6.624;2023-02-20T23:07:49;42.80;;;21.93;;
3875;SDS011;1953;51.222;6.624;2023-02-20T23:12:49;45.00;;;23.30;;
3875;SDS011;1953;51.222;6.624;2023-02-20T23:17:49;31.67;;;15.77;;
3875;SDS011;1953;51.222;6.624;2023-02-20T23:22:51;44.30;;;23.70;;
3875;SDS011;1953;51.222;6.624;2023-02-20T23:27:51;46.43;;;23.60;;
3875;SDS011;1953;51.222;6.624;2023-02-20T23:32:51;50.73;;;23.40;;
3875;SDS011;1953;51.222;6.624;2023-02-20T23:37:52;40.60;;;19.73;;
3875;SDS011;1953;51.222;6.624;2023-02-20T23:42:52;45.80;;;23.90;;
3875;SDS011;1953;51.222;6.624;2023-02-20T23:47:52;39.17;;;17.33;;
3875;SDS011;1953;51.222;6.624;2023-02-20T23:52:53;45.60;;;22.37;;
3875;SDS011;1953;51.222;6.624;2023-02-20T23:57:53;45.80;;;23.00;;
